Time;durP1;ratioP1;P1;durP2;ratioP2;P2;SDS_P1;SDS_P2;PMS_P1;PMS_P2;Temp;Humidity;BMP_temperature;BMP_pressure;BME280_temperature;BME280_humidity;BME280_pressure;Samples;Min_cycle;Max_cycle;Signal;HPM_P1;HPM_P2
2022/02/23 00:00:00;;;;;;;14.70;1.80;;;;;;;6.13;100.00;100650.50;5166806;28;20038;-81
2022/02/23 00:02:31;;;;;;;13.82;2.05;;;;;;;6.16;100.00;100653.06;5168489;28;20034;-81
2022/02/23 00:05:01;;;;;;;9.90;1.95;;;;;;;6.11;100.00;100670.44;5174757;28;20618;-81
2022/02/23 00:07:31;;;;;;;12.20;1.80;;;;;;;6.14;100.00;100678.16;5174682;28;20022;-81
2022/02/23 00:10:02;;;;;;;17.23;1.70;;;;;;;6.08;100.00;100692.09;5177987;28;20030;-81
2022/02/23 00:12:33;;;;;;;16.25;2.05;;;;;;;6.09;100.00;100701.59;5180477;28;20026;-81
2022/02/23 00:15:04;;;;;;;15.43;1.60;;;;;;;6.11;100.00;100697.22;5172774;28;20030;-81
2022/02/23 00:17:34;;;;;;;13.55;2.00;;;;;;;6.06;100.00;100703.38;5175576;28;20557;-81
2022/02/23 00:20:05;;;;;;;11.35;1.70;;;;;;;6.08;100.00;100706.81;5175333;28;20068;-80
2022/02/23 00:22:35;;;;;;;11.68;1.80;;;;;;;6.07;100.00;100707.69;5173472;28;20030;-81
2022/02/23 00:25:06;;;;;;;11.00;1.75;;;;;;;5.98;100.00;100715.59;5172483;28;20033;-81
2022/02/23 00:27:37;;;;;;;11.48;1.65;;;;;;;6.02;100.00;100727.63;5179233;28;20117;-81
2022/02/23 00:30:08;;;;;;;14.27;1.83;;;;;;;6.02;100.00;100727.63;5181608;28;20105;-81
2022/02/23 00:32:38;;;;;;;10.00;1.65;;;;;;;6.04;100.00;100726.75;5174846;28;20042;-80
2022/02/23 00:35:08;;;;;;;17.20;1.88;;;;;;;6.06;100.00;100734.53;5174460;28;20029;-81
2022/02/23 00:37:39;;;;;;;18.52;1.83;;;;;;;6.04;100.00;100734.53;5171184;28;20035;-80
2022/02/23 00:40:09;;;;;;;16.77;1.77;;;;;;;6.05;100.00;100740.59;5173109;28;20144;-80
2022/02/23 00:42:40;;;;;;;15.35;2.20;;;;;;;6.05;100.00;100743.19;5166385;28;20027;-81
2022/02/23 00:45:10;;;;;;;9.60;1.92;;;;;;;6.03;100.00;100739.72;5175709;28;20091;-80
2022/02/23 00:47:40;;;;;;;16.90;1.80;;;;;;;6.02;100.00;100758.75;5169053;28;20118;-80
2022/02/23 00:50:11;;;;;;;11.80;1.85;;;;;;;6.03;100.00;100753.56;5160520;28;20195;-81
2022/02/23 00:52:41;;;;;;;15.15;2.15;;;;;;;6.07;100.00;100752.63;5164429;28;20079;-81
2022/02/23 00:55:11;;;;;;;16.98;1.85;;;;;;;6.11;100.00;100750.88;5171834;28;20404;-81
2022/02/23 00:57:42;;;;;;;14.82;2.03;;;;;;;6.13;100.00;100756.88;5154599;28;20026;-81
2022/02/23 01:00:12;;;;;;;14.27;1.90;;;;;;;6.18;100.00;100762.84;5170602;28;20094;-81
2022/02/23 01:02:42;;;;;;;18.35;2.30;;;;;;;6.16;100.00;100769.81;5168987;28;20030;-81
2022/02/23 01:05:13;;;;;;;18.45;2.08;;;;;;;6.27;100.00;100776.53;5166437;28;20041;-81
2022/02/23 01:07:43;;;;;;;13.70;1.90;;;;;;;6.16;100.00;100788.84;5161832;28;20053;-81
2022/02/23 01:10:13;;;;;;;17.17;2.28;;;;;;;6.23;100.00;100779.22;5177514;28;20022;-81
2022/02/23 01:12:44;;;;;;;21.92;2.72;;;;;;;6.30;100.00;100788.63;5176971;28;20041;-81
2022/02/23 01:15:15;;;;;;;17.55;2.63;;;;;;;6.36;100.00;100780.75;5169582;28;20029;-81
2022/02/23 01:17:45;;;;;;;16.77;2.25;;;;;;;6.36;100.00;100784.22;5166744;28;20025;-81
2022/02/23 01:20:15;;;;;;;20.67;2.58;;;;;;;6.41;100.00;100790.19;5169996;28;20061;-81
2022/02/23 01:22:46;;;;;;;16.13;2.55;;;;;;;6.37;100.00;100798.03;5156822;28;20562;-81
2022/02/23 01:25:16;;;;;;;18.60;2.80;;;;;;;6.36;100.00;100792.00;5169786;28;20041;-81
2022/02/23 01:27:46;;;;;;;19.15;2.65;;;;;;;6.34;100.00;100803.25;5173453;28;20036;-81
2022/02/23 01:30:17;;;;;;;13.20;1.90;;;;;;;6.40;100.00;100810.97;5170800;28;20372;-81
2022/02/23 01:32:47;;;;;;;19.23;2.63;;;;;;;6.42;100.00;100819.59;5170215;28;20037;-81
2022/02/23 01:35:17;;;;;;;15.48;2.60;;;;;;;6.43;100.00;100813.53;5181587;28;20113;-81
2022/02/23 01:37:48;;;;;;;18.85;2.35;;;;;;;6.44;100.00;100813.47;5174132;28;20049;-81
2022/02/23 01:40:19;;;;;;;22.38;2.95;;;;;;;6.38;100.00;100820.50;5180749;28;20040;-81
2022/02/23 01:42:51;;;;;;;20.83;2.83;;;;;;;6.39;100.00;100820.50;5176553;28;20033;-81
2022/02/23 01:45:21;;;;;;;18.25;2.47;;;;;;;6.46;100.00;100823.84;5173855;28;20029;-81
2022/02/23 01:47:51;;;;;;;14.63;2.33;;;;;;;6.41;100.00;100836.06;5169905;28;20473;-81
2022/02/23 01:50:21;;;;;;;17.65;2.33;;;;;;;6.39;100.00;100843.00;5173805;28;20041;-81
2022/02/23 01:52:52;;;;;;;14.48;1.88;;;;;;;6.38;100.00;100847.31;5168597;28;20716;-80
2022/02/23 01:55:22;;;;;;;17.38;2.42;;;;;;;6.38;100.00;100856.84;5173491;28;20080;-80
2022/02/23 01:57:52;;;;;;;19.85;2.28;;;;;;;6.33;100.00;100837.88;5169122;28;20030;-81
2022/02/23 02:00:23;;;;;;;11.18;2.05;;;;;;;6.39;100.00;100849.03;5173641;28;20038;-80
2022/02/23 02:02:54;;;;;;;15.48;2.17;;;;;;;6.40;100.00;100855.94;5168147;28;20032;-80
2022/02/23 02:05:24;;;;;;;16.83;2.30;;;;;;;6.32;100.00;100856.94;5180705;28;20033;-80
2022/02/23 02:07:54;;;;;;;19.98;2.58;;;;;;;6.29;100.00;100856.97;5176130;28;20033;-80
2022/02/23 02:10:24;;;;;;;15.35;2.42;;;;;;;6.31;100.00;100860.41;5176836;28;20036;-80
2022/02/23 02:12:55;;;;;;;17.40;2.38;;;;;;;6.31;100.00;100861.28;5175803;28;20022;-80
2022/02/23 02:15:25;;;;;;;18.17;2.30;;;;;;;6.30;100.00;100869.06;5172541;28;20030;-80
2022/02/23 02:17:56;;;;;;;17.23;2.75;;;;;;;6.32;100.00;100867.31;5168909;28;20030;-80
2022/02/23 02:20:26;;;;;;;12.38;1.90;;;;;;;6.31;100.00;100868.19;5172386;28;20040;-80
2022/02/23 02:22:56;;;;;;;25.63;2.80;;;;;;;6.33;100.00;100880.28;5168639;28;20084;-80
2022/02/23 02:25:27;;;;;;;14.23;2.53;;;;;;;6.35;100.00;100872.47;5172189;28;20456;-80
2022/02/23 02:27:57;;;;;;;13.45;1.63;;;;;;;6.32;100.00;100877.69;5168493;28;20105;-80
2022/02/23 02:30:27;;;;;;;14.40;2.20;;;;;;;6.32;100.00;100882.88;5172003;28;20268;-80
2022/02/23 02:32:58;;;;;;;18.60;1.98;;;;;;;6.35;100.00;100888.03;5167995;28;20081;-80
2022/02/23 02:35:28;;;;;;;16.13;2.75;;;;;;;6.33;100.00;100889.78;5179016;28;20439;-80
2022/02/23 02:37:58;;;;;;;16.73;2.60;;;;;;;6.34;100.00;100894.09;5172065;28;20030;-80
2022/02/23 02:40:29;;;;;;;22.58;2.00;;;;;;;6.36;100.00;100890.63;5176484;28;20499;-80
2022/02/23 02:43:00;;;;;;;17.02;2.28;;;;;;;6.33;100.00;100890.66;5175276;28;20022;-80
2022/02/23 02:45:32;;;;;;;27.25;2.97;;;;;;;6.37;100.00;100891.47;5171034;28;20100;-81
2022/02/23 02:48:03;;;;;;;22.80;2.10;;;;;;;6.33;100.00;100902.78;5169585;28;20120;-81
2022/02/23 02:50:33;;;;;;;17.27;2.58;;;;;;;6.36;100.00;100902.72;5170988;28;20458;-81
2022/02/23 02:53:03;;;;;;;21.70;3.13;;;;;;;6.36;100.00;100913.09;5167650;28;20038;-81
2022/02/23 02:55:34;;;;;;;21.80;2.97;;;;;;;6.37;100.00;100912.22;5170129;28;20045;-81
2022/02/23 02:58:04;;;;;;;16.25;2.35;;;;;;;6.33;100.00;100920.94;5170082;28;20026;-81
2022/02/23 03:00:34;;;;;;;17.88;2.90;;;;;;;6.34;100.00;100923.53;5169951;28;20037;-81
2022/02/23 03:03:05;;;;;;;17.83;2.65;;;;;;;6.38;100.00;100925.19;5173626;28;20033;-81
2022/02/23 03:05:35;;;;;;;19.02;2.47;;;;;;;6.44;100.00;100929.47;5177097;28;20032;-81
2022/02/23 03:08:05;;;;;;;21.30;2.65;;;;;;;6.36;100.00;100942.53;5171543;28;20508;-81
2022/02/23 03:10:36;;;;;;;19.10;2.55;;;;;;;6.33;100.00;100949.50;5176071;28;20029;-80
2022/02/23 03:13:07;;;;;;;20.77;2.85;;;;;;;6.28;100.00;100953.88;5174965;28;20607;-81
2022/02/23 03:15:37;;;;;;;16.60;2.53;;;;;;;6.30;100.00;100953.00;5169178;28;20113;-81
2022/02/23 03:18:08;;;;;;;22.98;2.58;;;;;;;6.28;100.00;100966.88;5169778;28;20091;-81
2022/02/23 03:20:38;;;;;;;23.40;2.63;;;;;;;6.34;100.00;100959.88;5151740;28;20666;-81
2022/02/23 03:23:09;;;;;;;16.33;2.28;;;;;;;6.29;100.00;100972.00;5169467;28;20064;-81
2022/02/23 03:25:39;;;;;;;17.45;2.75;;;;;;;6.35;100.00;100971.09;5169968;28;20048;-81
2022/02/23 03:28:10;;;;;;;13.43;1.98;;;;;;;6.31;100.00;100979.78;5167620;28;20113;-81
2022/02/23 03:30:40;;;;;;;15.20;2.20;;;;;;;6.21;100.00;100988.56;5169925;28;20034;-81
2022/02/23 03:33:11;;;;;;;16.30;2.20;;;;;;;6.23;100.00;100977.28;5170991;28;20037;-81
2022/02/23 03:35:43;;;;;;;13.82;2.33;;;;;;;6.17;100.00;100986.88;5178298;28;20534;-80
2022/02/23 03:38:14;;;;;;;15.82;2.13;;;;;;;6.18;100.00;101004.16;5173333;28;20089;-81
2022/02/23 03:40:44;;;;;;;17.67;2.55;;;;;;;6.15;100.00;101010.25;5176717;28;20034;-82
2022/02/23 03:43:17;;;;;;;17.17;2.10;;;;;;;6.14;100.00;101021.53;5175178;28;20053;-81
2022/02/23 03:45:47;;;;;;;23.45;2.67;;;;;;;6.12;100.00;101036.22;5171791;28;20038;-81
2022/02/23 03:48:18;;;;;;;17.85;2.55;;;;;;;6.13;100.00;101029.31;5175059;28;20029;-81
2022/02/23 03:50:48;;;;;;;21.23;2.65;;;;;;;6.14;100.00;101038.81;5171766;28;20123;-80
2022/02/23 03:53:19;;;;;;;15.45;2.28;;;;;;;6.20;100.00;101038.72;5174209;28;20030;-80
2022/02/23 03:55:50;;;;;;;12.68;1.88;;;;;;;6.19;100.00;101050.88;5171283;28;20037;-80
2022/02/23 03:58:20;;;;;;;16.75;2.70;;;;;;;6.27;100.00;101062.00;5174812;28;20487;-80
2022/02/23 04:00:51;;;;;;;13.00;1.80;;;;;;;6.28;100.00;101068.06;5153402;28;20550;-80
2022/02/23 04:03:21;;;;;;;13.30;1.73;;;;;;;6.27;100.00;101072.38;5177985;28;20085;-80
2022/02/23 04:05:51;;;;;;;17.02;2.22;;;;;;;6.25;100.00;101073.31;5163135;28;20061;-80
2022/02/23 04:08:22;;;;;;;12.68;2.70;;;;;;;6.34;100.00;101086.16;5173973;28;20472;-80
2022/02/23 04:10:52;;;;;;;19.48;3.00;;;;;;;6.31;100.00;101088.81;5179027;28;20026;-80
2022/02/23 04:13:22;;;;;;;25.55;2.47;;;;;;;6.31;100.00;101094.88;5178170;28;20021;-80
2022/02/23 04:15:52;;;;;;;21.52;2.88;;;;;;;6.28;100.00;101099.22;5170803;28;20370;-80
2022/02/23 04:18:23;;;;;;;13.43;2.38;;;;;;;6.30;100.00;101102.66;5166066;28;20038;-81
2022/02/23 04:20:53;;;;;;;13.82;2.13;;;;;;;6.20;100.00;101095.81;5174672;28;20108;-81
2022/02/23 04:23:23;;;;;;;15.65;2.10;;;;;;;6.31;100.00;101104.38;5170994;28;20034;-80
2022/02/23 04:25:53;;;;;;;15.32;2.20;;;;;;;6.28;100.00;101104.41;5174768;28;20038;-81
2022/02/23 04:28:26;;;;;;;13.82;2.00;;;;;;;6.23;100.00;101106.19;5171257;28;20120;-81
2022/02/23 04:30:58;;;;;;;16.42;2.10;;;;;;;6.24;100.00;101107.91;5173730;28;20500;-81
2022/02/23 04:33:29;;;;;;;16.50;2.08;;;;;;;6.31;100.00;101114.75;5174787;28;20034;-81
2022/02/23 04:35:59;;;;;;;17.33;2.28;;;;;;;6.30;100.00;101113.91;5182179;28;20095;-81
2022/02/23 04:38:29;;;;;;;18.80;2.40;;;;;;;6.33;100.00;101123.38;5173805;28;20436;-81
2022/02/23 04:41:00;;;;;;;10.48;2.00;;;;;;;6.32;100.00;101126.84;5179891;28;20022;-81
2022/02/23 04:43:33;;;;;;;15.20;1.70;;;;;;;6.29;100.00;101135.53;5158552;28;20034;-81
2022/02/23 04:46:06;;;;;;;13.23;1.77;;;;;;;6.29;100.00;101132.09;5172377;28;20030;-81
2022/02/23 04:48:38;;;;;;;10.70;1.90;;;;;;;6.26;100.00;101132.97;5172600;28;20033;-81
2022/02/23 04:51:09;;;;;;;16.88;2.40;;;;;;;6.17;100.00;101147.75;5172858;28;20393;-81
2022/02/23 04:53:39;;;;;;;19.65;2.60;;;;;;;6.20;100.00;101155.50;5172366;28;20057;-81
2022/02/23 04:56:10;;;;;;;11.70;2.00;;;;;;;6.16;100.00;101154.69;5170513;28;20436;-81
2022/02/23 04:58:40;;;;;;;18.00;2.08;;;;;;;6.19;100.00;101164.16;5170722;28;20068;-81
2022/02/23 05:01:11;;;;;;;20.33;2.70;;;;;;;6.05;100.00;101164.28;5172427;28;20416;-81
2022/02/23 05:03:41;;;;;;;19.98;2.10;;;;;;;6.12;100.00;101165.09;5176786;28;20038;-81
2022/02/23 05:06:11;;;;;;;12.35;1.92;;;;;;;6.10;100.00;101177.22;5180219;28;20028;-80
2022/02/23 05:08:42;;;;;;;18.23;2.30;;;;;;;6.12;100.00;101181.50;5153145;28;20026;-80
2022/02/23 05:11:12;;;;;;;15.90;2.92;;;;;;;6.14;100.00;101186.72;5172813;28;20068;-81
2022/02/23 05:13:43;;;;;;;16.45;1.98;;;;;;;6.10;100.00;101192.81;5164990;28;20037;-81
2022/02/23 05:16:13;;;;;;;15.05;2.42;;;;;;;6.12;100.00;101198.84;5166474;28;20030;-81
2022/02/23 05:18:43;;;;;;;13.38;2.13;;;;;;;6.03;100.00;101193.69;5169577;28;20040;-81
2022/02/23 05:21:14;;;;;;;17.77;2.00;;;;;;;6.05;100.00;101205.81;5166186;28;20304;-80
2022/02/23 05:23:44;;;;;;;16.20;2.30;;;;;;;6.01;100.00;101208.41;5168596;28;20080;-81
2022/02/23 05:26:14;;;;;;;17.42;2.30;;;;;;;5.90;100.00;101212.84;5171576;28;20072;-81
2022/02/23 05:28:44;;;;;;;17.05;2.17;;;;;;;5.92;100.00;101211.94;5169383;28;20029;-81
2022/02/23 05:31:15;;;;;;;14.55;2.15;;;;;;;5.87;100.00;101220.63;5171589;28;20080;-80
2022/02/23 05:33:45;;;;;;;14.48;2.55;;;;;;;5.92;100.00;101231.84;5172983;28;20101;-81
2022/02/23 05:36:15;;;;;;;14.25;2.17;;;;;;;5.90;100.00;101238.78;5180680;28;20026;-80
2022/02/23 05:38:45;;;;;;;18.30;2.28;;;;;;;5.83;100.00;101243.13;5170488;28;20038;-80
2022/02/23 05:41:16;;;;;;;15.65;2.60;;;;;;;5.76;100.00;101249.19;5162309;28;20235;-81
2022/02/23 05:43:46;;;;;;;20.17;2.38;;;;;;;5.82;100.00;101249.19;5174039;28;20038;-81
2022/02/23 05:46:16;;;;;;;19.98;2.20;;;;;;;5.85;100.00;101262.13;5166698;28;20121;-81
2022/02/23 05:48:47;;;;;;;17.63;2.55;;;;;;;5.81;100.00;101263.03;5167408;28;20451;-81
2022/02/23 05:51:25;;;;;;;16.23;2.17;;;;;;;5.89;100.00;101261.25;5169578;28;20121;-81
2022/02/23 05:53:56;;;;;;;16.60;2.30;;;;;;;5.82;100.00;101269.06;5161772;28;20026;-81
2022/02/23 05:56:28;;;;;;;14.98;2.17;;;;;;;5.83;100.00;101273.38;5165581;28;20080;-81
2022/02/23 05:58:58;;;;;;;21.73;2.53;;;;;;;5.77;100.00;101276.84;5166659;28;20535;-81
2022/02/23 06:01:29;;;;;;;16.08;2.40;;;;;;;5.80;100.00;101281.19;5152933;28;20034;-81
2022/02/23 06:03:59;;;;;;;14.85;2.03;;;;;;;5.74;100.00;101286.38;5176588;28;20037;-81
2022/02/23 06:06:30;;;;;;;20.83;2.25;;;;;;;5.83;100.00;101288.94;5179419;28;20048;-81
2022/02/23 06:09:00;;;;;;;13.30;2.97;;;;;;;5.87;100.00;101288.94;5171037;28;20028;-81
2022/02/23 06:11:30;;;;;;;14.18;2.00;;;;;;;5.83;100.00;101291.53;5180896;28;20034;-81
2022/02/23 06:14:00;;;;;;;16.42;2.38;;;;;;;5.80;100.00;101296.75;5173108;28;20179;-81
2022/02/23 06:16:31;;;;;;;15.70;2.10;;;;;;;5.79;100.00;101301.09;5154576;28;20029;-81
2022/02/23 06:19:02;;;;;;;17.38;2.38;;;;;;;5.78;100.00;101311.41;5169851;28;20481;-81
2022/02/23 06:21:33;;;;;;;15.55;2.33;;;;;;;5.75;100.00;101311.44;5171364;28;20053;-81
2022/02/23 06:24:03;;;;;;;18.67;2.30;;;;;;;5.84;100.00;101314.88;5172032;28;20969;-82
2022/02/23 06:26:34;;;;;;;15.13;2.40;;;;;;;5.83;100.00;101320.94;5164711;28;20033;-81
2022/02/23 06:29:04;;;;;;;19.85;2.78;;;;;;;5.86;100.00;101315.75;5162689;28;20404;-81
2022/02/23 06:31:35;;;;;;;24.33;2.30;;;;;;;5.92;100.00;101320.88;5166741;28;20400;-81
2022/02/23 06:34:06;;;;;;;17.10;2.22;;;;;;;5.83;100.00;101327.84;5166463;28;20036;-81
2022/02/23 06:36:36;;;;;;;12.07;2.00;;;;;;;5.76;100.00;101326.13;5168302;28;20448;-81
2022/02/23 06:39:06;;;;;;;11.45;2.15;;;;;;;5.90;100.00;101332.16;5166455;28;20018;-81
2022/02/23 06:41:36;;;;;;;19.73;2.55;;;;;;;5.91;100.00;101326.09;5166388;28;20427;-81
2022/02/23 06:44:07;;;;;;;19.25;2.28;;;;;;;5.89;100.00;101341.66;5165805;28;20030;-81
2022/02/23 06:46:37;;;;;;;12.35;2.10;;;;;;;5.85;100.00;101342.53;5165638;28;20065;-81
2022/02/23 06:49:07;;;;;;;12.02;2.30;;;;;;;5.88;100.00;101355.50;5165720;28;20031;-81
2022/02/23 06:51:40;;;;;;;15.13;2.17;;;;;;;5.92;100.00;101356.34;5167893;28;20034;-81
2022/02/23 06:54:10;;;;;;;17.50;2.40;;;;;;;5.89;100.00;101357.22;5169955;28;20026;-81
2022/02/23 06:56:41;;;;;;;18.90;2.35;;;;;;;6.00;100.00;101359.75;5169845;28;20033;-81
2022/02/23 06:59:11;;;;;;;14.90;2.10;;;;;;;6.05;100.00;101365.81;5170584;28;20030;-81
2022/02/23 07:01:41;;;;;;;15.45;2.28;;;;;;;6.11;100.00;101371.81;5165130;28;20189;-81
2022/02/23 07:04:12;;;;;;;18.30;2.30;;;;;;;6.07;100.00;101380.47;5175144;28;20072;-81
2022/02/23 07:06:43;;;;;;;17.17;2.33;;;;;;;6.08;100.00;101381.38;5166245;28;20038;-81
2022/02/23 07:09:13;;;;;;;13.30;2.40;;;;;;;6.07;100.00;101387.41;5171782;28;20033;-82
2022/02/23 07:11:43;;;;;;;15.57;2.28;;;;;;;6.15;100.00;101390.81;5178092;28;20030;-82
2022/02/23 07:14:14;;;;;;;11.52;2.33;;;;;;;6.02;100.00;101397.81;5171550;28;20464;-82
2022/02/23 07:16:44;;;;;;;15.05;2.30;;;;;;;6.27;100.00;101388.19;5168975;28;20033;-82
2022/02/23 07:19:16;;;;;;;17.25;2.38;;;;;;;6.25;100.00;101398.56;5170784;28;20306;-82
2022/02/23 07:21:47;;;;;;;17.85;2.90;;;;;;;6.32;100.00;101407.19;5155547;28;20519;-82
2022/02/23 07:24:19;;;;;;;20.38;2.45;;;;;;;6.34;100.00;101414.09;5176077;28;20030;-82
2022/02/23 07:26:49;;;;;;;16.25;2.38;;;;;;;6.37;100.00;101410.59;5172373;28;20022;-82
2022/02/23 07:29:21;;;;;;;14.55;2.25;;;;;;;6.53;100.00;101417.44;5176424;28;20075;-82
2022/02/23 07:31:51;;;;;;;17.50;2.40;;;;;;;6.49;100.00;101420.94;5171286;28;20061;-82
2022/02/23 07:34:21;;;;;;;15.32;2.28;;;;;;;6.51;100.00;101420.06;5176270;28;20060;-82
2022/02/23 07:36:52;;;;;;;11.70;2.15;;;;;;;6.58;100.00;101426.09;5179020;28;20036;-82
2022/02/23 07:39:22;;;;;;;13.13;2.38;;;;;;;6.69;100.00;101429.47;5176346;28;20022;-82
2022/02/23 07:41:52;;;;;;;9.68;1.85;;;;;;;6.80;100.00;101419.88;5181827;28;20044;-82
2022/02/23 07:44:22;;;;;;;12.73;2.17;;;;;;;6.81;100.00;101426.78;5171138;28;20089;-82
2022/02/23 07:46:53;;;;;;;17.85;2.90;;;;;;;6.87;100.00;101429.34;5167399;28;20350;-82
2022/02/23 07:49:23;;;;;;;12.60;2.03;;;;;;;6.91;100.00;101433.66;5158074;28;20044;-82
2022/02/23 07:51:54;;;;;;;17.55;2.75;;;;;;;6.92;100.00;101427.59;5171381;28;20461;-82
2022/02/23 07:54:25;;;;;;;17.27;2.60;;;;;;;6.98;100.00;101437.94;5174928;28;20068;-82
2022/02/23 07:56:56;;;;;;;15.30;2.67;;;;;;;6.92;99.76;101436.22;5171241;28;20226;-82
2022/02/23 07:59:27;;;;;;;15.77;2.60;;;;;;;6.92;99.47;101443.19;5174705;28;20029;-82
2022/02/23 08:01:57;;;;;;;13.00;2.30;;;;;;;7.13;99.11;101440.41;5171778;28;20026;-82
2022/02/23 08:04:28;;;;;;;15.00;2.05;;;;;;;7.21;98.82;101443.81;5180650;28;20029;-82
2022/02/23 08:06:59;;;;;;;13.35;2.38;;;;;;;7.36;96.53;101448.00;5181039;28;20022;-82
2022/02/23 08:09:29;;;;;;;16.33;2.15;;;;;;;7.16;96.73;101445.59;5180985;28;20108;-82
2022/02/23 08:12:00;;;;;;;11.07;2.15;;;;;;;7.27;97.63;101443.78;5184287;28;20061;-82
2022/02/23 08:14:31;;;;;;;16.65;2.60;;;;;;;7.47;95.69;101446.19;5176105;28;20444;-82
2022/02/23 08:19:51;;;;;;;17.95;2.90;;;;;;;8.57;90.97;101440.59;5174294;28;20077;-82
2022/02/23 08:22:28;;;;;;;12.45;2.20;;;;;;;9.13;88.98;101440.63;5160531;28;20499;-82
2022/02/23 08:24:58;;;;;;;22.50;2.95;;;;;;;9.26;85.46;101449.97;5170554;28;20030;-82
2022/02/23 08:27:30;;;;;;;15.60;2.67;;;;;;;8.79;87.62;101452.44;5177027;28;20447;-82
2022/02/23 08:30:01;;;;;;;11.73;2.20;;;;;;;8.85;88.49;101449.75;5175355;28;20085;-82
2022/02/23 08:32:31;;;;;;;18.48;2.70;;;;;;;9.13;86.82;101444.97;5175882;28;20121;-82
2022/02/23 08:35:02;;;;;;;14.60;2.65;;;;;;;10.03;83.98;101444.25;5181866;28;20476;-82
2022/02/23 08:37:32;;;;;;;12.75;2.40;;;;;;;11.00;81.98;101441.28;5163199;28;20111;-82
2022/02/23 08:40:03;;;;;;;16.35;2.63;;;;;;;10.83;79.55;101452.09;5180266;28;20036;-82
2022/02/23 08:42:33;;;;;;;13.57;2.88;;;;;;;10.13;80.47;101445.81;5165595;28;20124;-82
2022/02/23 08:45:04;;;;;;;14.40;2.38;;;;;;;10.27;79.76;101447.25;5174222;28;20034;-82
2022/02/23 08:47:34;;;;;;;17.70;2.33;;;;;;;10.63;79.92;101438.63;5171788;28;20083;-82
2022/02/23 08:50:06;;;;;;;17.27;2.95;;;;;;;10.20;81.92;101444.78;5175340;28;20018;-81
2022/02/23 08:52:36;;;;;;;17.42;2.60;;;;;;;10.30;79.75;101446.28;5174619;28;20037;-80
2022/02/23 08:55:09;;;;;;;12.57;2.33;;;;;;;11.08;78.80;101445.44;5175246;28;20036;-81
2022/02/23 08:57:39;;;;;;;16.40;2.63;;;;;;;11.76;74.65;101448.06;5175436;28;20041;-81
2022/02/23 09:00:10;;;;;;;15.35;2.05;;;;;;;12.57;71.14;101435.25;5175483;28;20030;-81
2022/02/23 09:02:40;;;;;;;17.73;2.85;;;;;;;12.36;73.16;101442.88;5176407;28;20087;-81
2022/02/23 09:05:11;;;;;;;12.73;2.05;;;;;;;12.22;72.13;101450.25;5166780;28;20029;-81
2022/02/23 09:07:41;;;;;;;13.88;2.70;;;;;;;12.53;71.05;101451.97;5175514;28;20160;-81
2022/02/23 09:10:11;;;;;;;18.00;2.50;;;;;;;11.52;74.67;101456.53;5176834;28;20072;-81
2022/02/23 09:12:43;;;;;;;14.25;2.78;;;;;;;10.25;79.00;101469.94;5159939;28;20810;-81
2022/02/23 09:15:14;;;;;;;13.15;2.28;;;;;;;9.62;80.27;101465.88;5172689;28;20022;-80
2022/02/23 09:17:45;;;;;;;16.63;2.67;;;;;;;8.65;84.49;101472.63;5170646;28;20479;-80
2022/02/23 09:20:15;;;;;;;17.27;2.33;;;;;;;8.78;86.48;101463.75;5173080;28;20050;-80
2022/02/23 09:22:46;;;;;;;18.63;2.95;;;;;;;8.90;86.02;101473.16;5169915;28;20492;-80
2022/02/23 09:25:16;;;;;;;14.75;2.65;;;;;;;9.28;84.79;101463.88;5172664;28;20036;-80
2022/02/23 09:27:46;;;;;;;19.30;2.47;;;;;;;8.91;85.98;101469.66;5170466;28;20302;-80
2022/02/23 09:30:17;;;;;;;21.77;2.90;;;;;;;9.13;85.34;101473.66;5173126;28;20022;-80
2022/02/23 09:32:50;;;;;;;22.63;2.88;;;;;;;9.08;85.58;101484.16;5161001;28;20376;-80
2022/02/23 09:35:20;;;;;;;14.13;2.40;;;;;;;8.91;86.22;101485.28;5163614;28;20409;-80
2022/02/23 09:37:51;;;;;;;20.80;2.85;;;;;;;9.07;85.97;101490.25;5168144;28;20026;-80
2022/02/23 09:40:22;;;;;;;15.23;2.40;;;;;;;8.99;86.16;101488.63;5176655;28;20079;-80
2022/02/23 09:42:52;;;;;;;14.35;2.33;;;;;;;9.54;84.90;101495.59;5175767;28;20050;-80
2022/02/23 09:45:24;;;;;;;14.15;2.80;;;;;;;9.28;84.61;101492.56;5173843;28;20430;-80
2022/02/23 09:47:55;;;;;;;18.90;3.10;;;;;;;9.13;84.33;101483.19;5164878;28;20066;-79
2022/02/23 09:50:25;;;;;;;16.70;2.75;;;;;;;9.53;84.86;101493.88;5173312;28;20454;-79
2022/02/23 09:52:56;;;;;;;12.57;2.38;;;;;;;9.64;85.02;101489.34;5169002;28;20026;-79
2022/02/23 09:55:29;;;;;;;16.27;2.72;;;;;;;9.60;83.63;101495.47;5172955;28;20049;-79
2022/02/23 09:58:00;;;;;;;16.05;2.78;;;;;;;9.42;84.76;101490.56;5169260;28;20034;-79
2022/02/23 10:00:31;;;;;;;16.48;3.25;;;;;;;9.42;84.05;101485.34;5171555;28;20037;-79
2022/02/23 10:03:02;;;;;;;14.52;2.50;;;;;;;9.35;84.71;101481.97;5163312;28;20444;-79
2022/02/23 10:05:38;;;;;;;19.73;2.63;;;;;;;9.45;84.04;101475.72;5176521;28;20025;-79
2022/02/23 10:08:12;;;;;;;16.17;2.70;;;;;;;9.47;83.26;101486.16;5176925;28;20037;-80
2022/02/23 10:10:43;;;;;;;24.08;3.17;;;;;;;9.65;83.30;101491.06;5180234;28;20040;-79
2022/02/23 10:13:18;;;;;;;13.82;2.78;;;;;;;9.61;83.35;101491.97;5176798;28;20228;-80
2022/02/23 10:15:49;;;;;;;14.48;2.08;;;;;;;9.41;84.25;101489.72;5172642;28;20026;-79
2022/02/23 10:18:19;;;;;;;15.15;2.22;;;;;;;9.35;83.77;101494.16;5176623;28;20032;-80
2022/02/23 10:20:51;;;;;;;14.25;2.33;;;;;;;9.37;84.21;101484.56;5173871;28;20037;-79
2022/02/23 10:23:23;;;;;;;15.93;2.70;;;;;;;9.19;84.19;101492.69;5176521;28;20563;-79
2022/02/23 10:26:00;;;;;;;18.23;2.83;;;;;;;9.19;85.76;101500.50;5170078;28;20317;-80
2022/02/23 10:28:35;;;;;;;9.88;2.40;;;;;;;9.22;83.46;101497.84;5176847;28;20025;-80
2022/02/23 10:31:09;;;;;;;9.95;1.83;;;;;;;9.21;84.54;101501.34;5174198;28;20607;-80
2022/02/23 10:33:42;;;;;;;12.68;2.10;;;;;;;9.40;84.70;101498.44;5176735;28;20516;-80
2022/02/23 10:36:18;;;;;;;9.55;2.22;;;;;;;9.54;84.50;101500.81;5183960;28;20018;-80
2022/02/23 10:38:57;;;;;;;11.02;1.90;;;;;;;9.45;83.30;101506.19;5173747;28;20034;-80
2022/02/23 10:41:32;;;;;;;18.42;2.40;;;;;;;9.25;83.10;101510.84;5176919;28;20361;-80
2022/02/23 10:44:04;;;;;;;14.90;2.40;;;;;;;9.42;82.58;101514.91;5176067;28;20098;-80
2022/02/23 10:46:37;;;;;;;15.57;2.08;;;;;;;9.77;82.71;101509.09;5173148;28;20046;-80
2022/02/23 10:49:08;;;;;;;15.18;2.20;;;;;;;9.96;83.27;101510.53;5175265;28;20022;-79
2022/02/23 10:51:42;;;;;;;13.55;2.08;;;;;;;9.86;82.42;101514.16;5173357;28;20594;-80
2022/02/23 10:54:13;;;;;;;14.52;2.35;;;;;;;9.61;83.03;101513.72;5174381;28;20495;-80
2022/02/23 10:56:44;;;;;;;14.70;2.78;;;;;;;9.65;82.21;101520.63;5172701;28;20045;-80
2022/02/23 10:59:17;;;;;;;13.02;2.00;;;;;;;9.63;82.21;101517.16;5173813;28;20341;-79
2022/02/23 11:01:49;;;;;;;14.30;2.60;;;;;;;9.75;83.28;101518.72;5153562;28;20010;-80
2022/02/23 11:04:21;;;;;;;13.95;2.63;;;;;;;9.88;82.01;101512.38;5183045;28;20103;-79
2022/02/23 11:06:52;;;;;;;16.23;2.33;;;;;;;9.84;82.31;101513.34;5176255;28;20026;-80
2022/02/23 11:09:23;;;;;;;13.50;2.50;;;;;;;9.72;82.05;101516.16;5165279;28;20474;-79
2022/02/23 11:11:53;;;;;;;14.93;2.22;;;;;;;9.55;82.96;101516.44;5160571;28;20018;-79
2022/02/23 11:14:24;;;;;;;11.02;2.17;;;;;;;9.64;81.63;101512.81;5171178;28;20404;-79
2022/02/23 11:16:55;;;;;;;11.35;2.00;;;;;;;9.62;81.85;101507.63;5167655;28;20042;-80
2022/02/23 11:19:29;;;;;;;14.68;2.20;;;;;;;9.66;80.64;101517.13;5170575;28;20444;-80
2022/02/23 11:22:02;;;;;;;14.50;2.08;;;;;;;9.60;79.70;101512.00;5162829;28;20019;-79
2022/02/23 11:24:32;;;;;;;14.32;2.38;;;;;;;9.77;81.71;101504.75;5160760;28;20057;-79
2022/02/23 11:27:08;;;;;;;11.50;2.10;;;;;;;9.71;80.78;101509.22;5169062;28;20631;-79
2022/02/23 11:29:48;;;;;;;13.07;2.10;;;;;;;9.79;80.26;101513.41;5170387;28;20080;-79
2022/02/23 11:32:29;;;;;;;13.48;2.63;;;;;;;9.75;80.11;101521.31;5171795;28;20084;-79
2022/02/23 11:34:59;;;;;;;10.75;3.00;;;;;;;9.52;78.91;101506.03;5170343;28;20026;-79
2022/02/23 11:37:30;;;;;;;14.77;2.10;;;;;;;9.50;79.38;101507.81;5174252;28;20478;-80